createdAt,value
2023-01-29T00:00:39.875Z,-0.20
2023-01-29T00:03:28.989Z,-0.21
2023-01-29T00:05:57.885Z,-0.25
2023-01-29T00:08:27.595Z,-0.29
2023-01-29T00:11:02.931Z,-0.29
2023-01-29T00:13:32.363Z,-0.31
2023-01-29T00:16:02.006Z,-0.33
2023-01-29T00:18:31.955Z,-0.36
2023-01-29T00:21:00.657Z,-0.38
2023-01-29T00:23:29.407Z,-0.40
2023-01-29T00:26:00.656Z,-0.40
2023-01-29T00:28:29.451Z,-0.41
2023-01-29T00:30:58.559Z,-0.38
2023-01-29T00:33:29.703Z,-0.32
2023-01-29T00:35:58.552Z,-0.27
2023-01-29T00:38:27.714Z,-0.24
2023-01-29T00:41:15.341Z,-0.22
2023-01-29T00:44:03.570Z,-0.19
2023-01-29T00:46:32.616Z,-0.20
2023-01-29T00:49:01.740Z,-0.24
2023-01-29T00:51:31.378Z,-0.28
2023-01-29T00:54:03.071Z,-0.33
2023-01-29T00:56:32.836Z,-0.40
2023-01-29T00:59:01.485Z,-0.50
2023-01-29T01:01:49.335Z,-0.52
2023-01-29T01:04:18.046Z,-0.57
2023-01-29T01:06:46.877Z,-0.57
2023-01-29T01:09:34.370Z,-0.57
2023-01-29T01:12:04.047Z,-0.54
2023-01-29T01:14:36.724Z,-0.49
2023-01-29T01:17:05.819Z,-0.45
2023-01-29T01:19:34.638Z,-0.38
2023-01-29T01:22:05.680Z,-0.39
2023-01-29T01:24:34.699Z,-0.39
2023-01-29T01:27:03.742Z,-0.43
2023-01-29T01:29:32.580Z,-0.45
2023-01-29T01:32:01.859Z,-0.46
2023-01-29T01:34:30.511Z,-0.42
2023-01-29T01:36:59.275Z,-0.39
2023-01-29T01:39:28.644Z,-0.41
2023-01-29T01:41:58.066Z,-0.48
2023-01-29T01:45:01.622Z,-0.51
2023-01-29T01:47:48.415Z,-0.46
2023-01-29T01:50:36.107Z,-0.43
2023-01-29T01:53:09.396Z,-0.39
2023-01-29T01:55:44.884Z,-0.37
2023-01-29T01:58:23.403Z,-0.36
2023-01-29T02:00:53.079Z,-0.34
2023-01-29T02:03:42.760Z,-0.33
2023-01-29T02:06:30.759Z,-0.33
2023-01-29T02:09:24.653Z,-0.37
2023-01-29T02:11:53.771Z,-0.39
2023-01-29T02:14:23.577Z,-0.42
2023-01-29T02:16:52.211Z,-0.43
2023-01-29T02:19:42.158Z,-0.44
2023-01-29T02:22:26.086Z,-0.46
2023-01-29T02:25:10.208Z,-0.47
2023-01-29T02:28:12.669Z,-0.48
2023-01-29T02:31:19.244Z,-0.46
2023-01-29T02:34:17.253Z,-0.45
2023-01-29T02:37:03.933Z,-0.46
2023-01-29T02:39:48.480Z,-0.41
2023-01-29T02:42:20.387Z,-0.39
2023-01-29T02:45:01.799Z,-0.38
2023-01-29T02:47:47.558Z,-0.35
2023-01-29T02:50:37.699Z,-0.38
2023-01-29T02:53:15.534Z,-0.42
2023-01-29T02:55:57.941Z,-0.43
2023-01-29T02:58:26.808Z,-0.44
2023-01-29T03:01:01.144Z,-0.47
2023-01-29T03:03:37.153Z,-0.51
2023-01-29T03:06:33.325Z,-0.57
2023-01-29T03:09:08.602Z,-0.58
2023-01-29T03:11:45.139Z,-0.59
2023-01-29T03:15:03.835Z,-0.62
2023-01-29T03:17:38.817Z,-0.60
2023-01-29T03:20:15.667Z,-0.57
2023-01-29T03:22:52.252Z,-0.54
2023-01-29T03:25:44.064Z,-0.52
2023-01-29T03:28:36.836Z,-0.50
2023-01-29T03:31:28.979Z,-0.46
2023-01-29T03:34:06.026Z,-0.43
2023-01-29T03:37:19.887Z,-0.40
2023-01-29T03:39:49.090Z,-0.44
2023-01-29T03:42:24.333Z,-0.44
2023-01-29T03:45:28.357Z,-0.50
2023-01-29T03:48:11.252Z,-0.55
2023-01-29T03:51:01.075Z,-0.60
2023-01-29T03:53:47.873Z,-0.64
2023-01-29T03:56:41.113Z,-0.67
2023-01-29T03:59:38.912Z,-0.68
2023-01-29T04:02:32.213Z,-0.69
2023-01-29T04:05:12.140Z,-0.67
2023-01-29T04:07:55.406Z,-0.70
2023-01-29T04:10:28.429Z,-0.68
2023-01-29T04:13:02.677Z,-0.65
2023-01-29T04:15:37.677Z,-0.64
2023-01-29T04:18:07.159Z,-0.68
2023-01-29T04:20:45.219Z,-0.72
2023-01-29T04:23:24.023Z,-0.75
2023-01-29T04:26:22.309Z,-0.77
2023-01-29T04:29:17.216Z,-0.79
2023-01-29T04:31:58.090Z,-0.80
2023-01-29T04:34:37.118Z,-0.81
2023-01-29T04:37:13.455Z,-0.79
2023-01-29T04:39:45.776Z,-0.79
2023-01-29T04:42:36.209Z,-0.78
2023-01-29T04:45:31.120Z,-0.78
2023-01-29T04:48:20.614Z,-0.79
2023-01-29T04:51:13.285Z,-0.81
2023-01-29T04:53:49.006Z,-0.82
2023-01-29T04:56:29.840Z,-0.81
2023-01-29T04:59:17.200Z,-0.85
2023-01-29T05:01:47.895Z,-0.88
2023-01-29T05:04:20.513Z,-0.92
2023-01-29T05:06:51.098Z,-0.95
2023-01-29T05:09:20.285Z,-0.99
2023-01-29T05:11:50.877Z,-1.00
2023-01-29T05:14:21.371Z,-1.00
2023-01-29T05:16:54.286Z,-1.00
2023-01-29T05:19:23.219Z,-1.00
2023-01-29T05:21:52.358Z,-0.99
2023-01-29T05:24:24.501Z,-0.96
2023-01-29T05:27:13.743Z,-0.96
2023-01-29T05:29:46.711Z,-0.99
2023-01-29T05:32:16.529Z,-1.05
2023-01-29T05:34:45.162Z,-1.10
2023-01-29T05:37:14.037Z,-1.19
2023-01-29T05:39:43.170Z,-1.25
2023-01-29T05:42:11.993Z,-1.31
2023-01-29T05:44:40.709Z,-1.34
2023-01-29T05:47:09.606Z,-1.39
2023-01-29T05:49:38.885Z,-1.44
2023-01-29T05:52:07.810Z,-1.49
2023-01-29T05:54:36.831Z,-1.54
2023-01-29T05:57:05.507Z,-1.57
2023-01-29T05:59:34.733Z,-1.58
2023-01-29T06:02:03.701Z,-1.58
2023-01-29T06:04:32.406Z,-1.60
2023-01-29T06:07:04.021Z,-1.62
2023-01-29T06:09:33.058Z,-1.65
2023-01-29T06:12:01.862Z,-1.66
2023-01-29T06:14:30.557Z,-1.69
2023-01-29T06:17:02.020Z,-1.74
2023-01-29T06:19:30.935Z,-1.78
2023-01-29T06:21:59.797Z,-1.82
2023-01-29T06:24:30.425Z,-1.84
2023-01-29T06:26:59.281Z,-1.90
2023-01-29T06:29:28.290Z,-1.89
2023-01-29T06:31:57.361Z,-1.86
2023-01-29T06:34:26.139Z,-1.86
2023-01-29T06:36:55.006Z,-1.88
2023-01-29T06:39:23.918Z,-1.86
2023-01-29T06:41:52.642Z,-1.87
2023-01-29T06:44:21.761Z,-1.86
2023-01-29T06:46:50.952Z,-1.86
2023-01-29T06:49:21.777Z,-1.87
2023-01-29T06:51:50.434Z,-1.88
2023-01-29T06:54:19.595Z,-1.88
2023-01-29T06:56:48.276Z,-1.89
2023-01-29T06:59:17.249Z,-1.87
2023-01-29T07:01:46.655Z,-1.78
2023-01-29T07:04:15.463Z,-1.71
2023-01-29T07:06:45.444Z,-1.69
2023-01-29T07:09:14.885Z,-1.67
2023-01-29T07:11:43.506Z,-1.61
2023-01-29T07:14:12.236Z,-1.58
2023-01-29T07:16:41.461Z,-1.56
2023-01-29T07:19:10.657Z,-1.51
2023-01-29T07:21:39.531Z,-1.46
2023-01-29T07:24:08.810Z,-1.38
2023-01-29T07:26:37.690Z,-1.30
2023-01-29T07:29:06.474Z,-1.24
2023-01-29T07:31:36.099Z,-1.22
2023-01-29T07:34:05.137Z,-1.20
2023-01-29T07:36:34.036Z,-1.13
2023-01-29T07:39:02.930Z,-1.08
2023-01-29T07:41:31.681Z,-1.03
2023-01-29T07:44:01.531Z,-1.01
2023-01-29T07:46:30.549Z,-1.03
2023-01-29T07:48:59.781Z,-1.00
2023-01-29T07:51:28.425Z,-0.93
2023-01-29T07:53:57.271Z,-0.85
2023-01-29T07:56:26.268Z,-0.78
2023-01-29T07:58:55.403Z,-0.67
2023-01-29T08:01:24.569Z,-0.58
2023-01-29T08:03:53.533Z,-0.56
2023-01-29T08:06:22.449Z,-0.47
2023-01-29T08:08:52.501Z,-0.40
2023-01-29T08:11:21.219Z,-0.34
2023-01-29T08:13:50.143Z,-0.34
2023-01-29T08:16:19.049Z,-0.35
2023-01-29T08:18:49.092Z,-0.31
2023-01-29T08:21:18.169Z,-0.31
2023-01-29T08:23:47.218Z,-0.31
2023-01-29T08:26:15.823Z,-0.32
2023-01-29T08:28:45.051Z,-0.30
2023-01-29T08:31:16.078Z,-0.27
2023-01-29T08:33:44.697Z,-0.22
2023-01-29T08:36:13.607Z,-0.18
2023-01-29T08:38:42.559Z,-0.11
2023-01-29T08:41:11.159Z,-0.02
2023-01-29T08:43:40.988Z,0.05
2023-01-29T08:46:09.821Z,0.12
2023-01-29T08:48:38.699Z,0.21
2023-01-29T08:51:08.110Z,0.32
2023-01-29T08:53:37.076Z,0.42
2023-01-29T08:56:06.068Z,0.51
2023-01-29T08:58:35.820Z,0.58
2023-01-29T09:01:10.092Z,0.64
2023-01-29T09:03:41.675Z,0.66
2023-01-29T09:06:12.677Z,0.68
2023-01-29T09:08:42.091Z,0.67
2023-01-29T09:11:11.595Z,0.66
2023-01-29T09:13:40.439Z,0.67
2023-01-29T09:16:10.842Z,0.73
2023-01-29T09:18:39.771Z,0.79
2023-01-29T09:21:08.842Z,0.87
2023-01-29T09:23:37.752Z,0.96
2023-01-29T09:26:09.559Z,1.09
2023-01-29T09:28:38.998Z,1.19
2023-01-29T09:31:07.727Z,1.28
2023-01-29T09:33:36.922Z,1.36
2023-01-29T09:36:06.443Z,1.44
2023-01-29T09:38:35.084Z,1.51
2023-01-29T09:41:15.799Z,1.56
2023-01-29T09:44:02.864Z,1.58
2023-01-29T09:46:41.247Z,1.60
2023-01-29T09:49:24.019Z,1.67
2023-01-29T09:52:05.132Z,1.68
2023-01-29T09:55:04.963Z,1.72
2023-01-29T09:57:47.506Z,1.77
2023-01-29T10:00:42.525Z,1.79
2023-01-29T10:03:29.608Z,1.76
2023-01-29T10:06:20.667Z,1.76
2023-01-29T10:09:22.655Z,1.80
2023-01-29T10:12:09.941Z,1.84
2023-01-29T10:14:38.944Z,1.84
2023-01-29T10:17:15.667Z,1.86
2023-01-29T10:19:50.771Z,1.84
2023-01-29T10:22:34.728Z,1.85
2023-01-29T10:25:14.705Z,1.91
2023-01-29T10:27:50.459Z,2.01
2023-01-29T10:30:19.286Z,2.08
2023-01-29T10:32:49.930Z,2.08
2023-01-29T10:36:01.042Z,2.13
2023-01-29T10:38:44.677Z,2.15
2023-01-29T10:41:41.216Z,2.18
2023-01-29T10:44:26.027Z,2.23
2023-01-29T10:47:07.043Z,2.32
2023-01-29T10:50:00.530Z,2.42
2023-01-29T10:53:14.239Z,2.42
2023-01-29T10:56:23.360Z,2.48
2023-01-29T10:58:57.051Z,2.55
2023-01-29T11:01:27.173Z,2.56
2023-01-29T11:04:01.472Z,2.58
2023-01-29T11:06:35.790Z,2.62
2023-01-29T11:09:04.602Z,2.65
2023-01-29T11:12:11.180Z,2.62
2023-01-29T11:14:47.077Z,2.59
2023-01-29T11:17:24.773Z,2.60
2023-01-29T11:19:56.201Z,2.60
2023-01-29T11:22:30.565Z,2.61
2023-01-29T11:25:20.611Z,2.58
2023-01-29T11:27:57.695Z,2.55
2023-01-29T11:30:28.111Z,2.49
2023-01-29T11:33:08.571Z,2.44
2023-01-29T11:35:37.363Z,2.39
2023-01-29T11:38:22.281Z,2.30
2023-01-29T11:40:51.839Z,2.28
2023-01-29T11:43:28.133Z,2.26
2023-01-29T11:46:02.003Z,2.27
2023-01-29T11:48:50.656Z,2.31
2023-01-29T11:51:26.271Z,2.33
2023-01-29T11:54:02.594Z,2.36
2023-01-29T11:56:43.167Z,2.38
2023-01-29T11:59:48.747Z,2.38
2023-01-29T12:02:28.528Z,2.37
2023-01-29T12:05:02.231Z,2.35
2023-01-29T12:07:32.089Z,2.34
2023-01-29T12:10:00.877Z,2.36
2023-01-29T12:12:30.331Z,2.35
2023-01-29T12:15:20.444Z,2.36
2023-01-29T12:17:58.113Z,2.35
2023-01-29T12:20:34.805Z,2.34
2023-01-29T12:23:22.872Z,2.36
2023-01-29T12:26:01.063Z,2.36
2023-01-29T12:28:58.414Z,2.39
2023-01-29T12:31:27.116Z,2.43
2023-01-29T12:34:15.807Z,2.47
2023-01-29T12:36:54.812Z,2.51
2023-01-29T12:39:24.063Z,2.54
2023-01-29T12:42:23.334Z,2.51
2023-01-29T12:44:52.527Z,2.53
2023-01-29T12:47:29.531Z,2.54
2023-01-29T12:50:05.888Z,2.54
2023-01-29T12:52:39.925Z,2.54
2023-01-29T12:55:12.057Z,2.53
2023-01-29T12:57:51.353Z,2.51
2023-01-29T13:00:27.666Z,2.52
2023-01-29T13:03:17.669Z,2.56
2023-01-29T13:06:00.946Z,2.60
2023-01-29T13:08:41.433Z,2.64
2023-01-29T13:11:23.242Z,2.65
2023-01-29T13:13:57.840Z,2.63
2023-01-29T13:16:33.008Z,2.58
2023-01-29T13:19:37.180Z,2.49
2023-01-29T13:22:32.557Z,2.41
2023-01-29T13:25:05.400Z,2.32
2023-01-29T13:27:37.098Z,2.24
2023-01-29T13:30:07.078Z,2.22
2023-01-29T13:32:36.772Z,2.24
2023-01-29T13:35:14.928Z,2.19
2023-01-29T13:37:55.365Z,2.18
2023-01-29T13:40:26.211Z,2.18
2023-01-29T13:42:59.000Z,2.21
2023-01-29T13:45:45.891Z,2.24
2023-01-29T13:48:29.006Z,2.20
2023-01-29T13:51:02.492Z,2.15
2023-01-29T13:53:41.138Z,2.12
2023-01-29T13:56:50.404Z,2.13
2023-01-29T13:59:42.313Z,2.09
2023-01-29T14:02:23.742Z,2.03
2023-01-29T14:05:12.783Z,1.99
2023-01-29T14:07:45.098Z,1.93
2023-01-29T14:10:18.747Z,1.87
2023-01-29T14:12:48.733Z,1.80
2023-01-29T14:15:24.687Z,1.78
2023-01-29T14:18:18.748Z,1.83
2023-01-29T14:20:47.865Z,1.88
2023-01-29T14:23:31.930Z,1.92
2023-01-29T14:26:03.013Z,1.96
2023-01-29T14:28:35.047Z,2.02
2023-01-29T14:31:07.761Z,2.07
2023-01-29T14:33:41.859Z,2.10
2023-01-29T14:36:16.154Z,2.12
2023-01-29T14:38:52.553Z,2.10
2023-01-29T14:41:29.207Z,2.07
2023-01-29T14:44:39.925Z,2.06
2023-01-29T14:47:19.621Z,2.04
2023-01-29T14:49:59.350Z,2.03
2023-01-29T14:52:36.300Z,2.07
2023-01-29T14:55:11.781Z,2.07
2023-01-29T14:57:42.224Z,2.02
2023-01-29T15:00:22.259Z,1.99
2023-01-29T15:03:01.411Z,1.99
2023-01-29T15:05:38.407Z,1.98
2023-01-29T15:08:20.368Z,1.90
2023-01-29T15:11:14.240Z,1.84
2023-01-29T15:13:51.139Z,1.80
2023-01-29T15:16:32.762Z,1.74
2023-01-29T15:19:22.310Z,1.69
2023-01-29T15:22:12.375Z,1.68
2023-01-29T15:24:43.035Z,1.67
2023-01-29T15:27:17.443Z,1.68
2023-01-29T15:30:03.275Z,1.69
2023-01-29T15:32:36.578Z,1.71
2023-01-29T15:35:10.425Z,1.74
2023-01-29T15:37:40.513Z,1.75
2023-01-29T15:40:16.241Z,1.75
2023-01-29T15:42:49.080Z,1.73
2023-01-29T15:45:29.509Z,1.69
2023-01-29T15:48:07.494Z,1.63
2023-01-29T15:50:41.956Z,1.59
2023-01-29T15:53:20.285Z,1.57
2023-01-29T15:55:52.008Z,1.56
2023-01-29T15:58:30.833Z,1.53
2023-01-29T16:01:02.619Z,1.47
2023-01-29T16:03:33.773Z,1.41
2023-01-29T16:06:03.161Z,1.40
2023-01-29T16:08:33.504Z,1.38
2023-01-29T16:11:05.456Z,1.38
2023-01-29T16:13:37.575Z,1.41
2023-01-29T16:16:21.285Z,1.38
2023-01-29T16:19:00.076Z,1.32
2023-01-29T16:21:37.682Z,1.33
2023-01-29T16:24:16.210Z,1.34
2023-01-29T16:26:50.054Z,1.37
2023-01-29T16:29:32.083Z,1.41
2023-01-29T16:32:03.462Z,1.43
2023-01-29T16:34:39.100Z,1.42
2023-01-29T16:37:25.724Z,1.42
2023-01-29T16:39:55.024Z,1.40
2023-01-29T16:42:31.684Z,1.38
2023-01-29T16:45:05.497Z,1.38
2023-01-29T16:47:41.703Z,1.36
2023-01-29T16:50:46.263Z,1.33
2023-01-29T16:53:23.769Z,1.30
2023-01-29T16:55:53.132Z,1.30
2023-01-29T16:58:28.347Z,1.33
2023-01-29T17:01:01.979Z,1.34
2023-01-29T17:03:34.424Z,1.37
2023-01-29T17:06:11.376Z,1.36
2023-01-29T17:08:43.657Z,1.35
2023-01-29T17:11:23.571Z,1.35
2023-01-29T17:13:57.166Z,1.34
2023-01-29T17:16:32.244Z,1.32
2023-01-29T17:19:02.384Z,1.29
2023-01-29T17:21:31.204Z,1.26
2023-01-29T17:23:59.832Z,1.22
2023-01-29T17:26:31.386Z,1.22
2023-01-29T17:29:00.950Z,1.22
2023-01-29T17:31:29.646Z,1.22
2023-01-29T17:33:58.679Z,1.22
2023-01-29T17:36:27.663Z,1.20
2023-01-29T17:38:56.283Z,1.18
2023-01-29T17:41:30.831Z,1.14
2023-01-29T17:43:59.633Z,1.09
2023-01-29T17:46:28.318Z,1.06
2023-01-29T17:48:57.112Z,1.00
2023-01-29T17:51:25.801Z,0.91
2023-01-29T17:53:54.402Z,0.84
2023-01-29T17:56:30.282Z,0.81
2023-01-29T17:58:59.406Z,0.78
2023-01-29T18:01:28.413Z,0.81
2023-01-29T18:04:04.859Z,0.85
2023-01-29T18:06:46.749Z,0.84
2023-01-29T18:09:28.662Z,0.82
2023-01-29T18:12:13.045Z,0.81
2023-01-29T18:14:52.752Z,0.83
2023-01-29T18:17:33.255Z,0.83
2023-01-29T18:20:33.316Z,0.82
2023-01-29T18:23:17.060Z,0.81
2023-01-29T18:25:57.642Z,0.79
2023-01-29T18:28:37.795Z,0.77
2023-01-29T18:31:15.409Z,0.79
2023-01-29T18:33:57.373Z,0.79
2023-01-29T18:36:36.761Z,0.81
2023-01-29T18:39:24.486Z,0.81
2023-01-29T18:42:03.747Z,0.78
2023-01-29T18:44:40.568Z,0.78
2023-01-29T18:47:10.221Z,0.76
2023-01-29T18:49:40.121Z,0.69
2023-01-29T18:52:08.928Z,0.61
2023-01-29T18:54:37.687Z,0.61
2023-01-29T18:57:13.767Z,0.57
2023-01-29T18:59:43.891Z,0.54
2023-01-29T19:02:17.725Z,0.48
2023-01-29T19:04:47.672Z,0.44
2023-01-29T19:07:16.681Z,0.43
2023-01-29T19:09:46.878Z,0.45
2023-01-29T19:12:23.635Z,0.48
2023-01-29T19:14:52.952Z,0.54
2023-01-29T19:17:21.727Z,0.54
2023-01-29T19:19:51.422Z,0.49
2023-01-29T19:22:20.122Z,0.46
2023-01-29T19:24:49.183Z,0.46
2023-01-29T19:27:21.618Z,0.45
2023-01-29T19:29:51.318Z,0.46
2023-01-29T19:32:19.864Z,0.47
2023-01-29T19:34:50.036Z,0.47
2023-01-29T19:37:19.863Z,0.47
2023-01-29T19:39:48.408Z,0.50
2023-01-29T19:42:18.153Z,0.54
2023-01-29T19:44:47.109Z,0.56
2023-01-29T19:47:15.993Z,0.58
2023-01-29T19:49:45.361Z,0.58
2023-01-29T19:52:49.812Z,0.55
2023-01-29T19:55:21.364Z,0.50
2023-01-29T19:57:54.443Z,0.48
2023-01-29T20:00:23.798Z,0.48
2023-01-29T20:02:53.682Z,0.48
2023-01-29T20:05:24.319Z,0.42
2023-01-29T20:07:53.951Z,0.37
2023-01-29T20:10:24.981Z,0.34
2023-01-29T20:12:54.231Z,0.30
2023-01-29T20:15:23.307Z,0.24
2023-01-29T20:17:51.903Z,0.19
2023-01-29T20:20:21.162Z,0.14
2023-01-29T20:22:51.700Z,0.09
2023-01-29T20:25:20.933Z,0.05
2023-01-29T20:27:52.597Z,-0.01
2023-01-29T20:30:23.974Z,-0.07
2023-01-29T20:32:56.229Z,-0.12
2023-01-29T20:35:25.910Z,-0.17
2023-01-29T20:37:56.127Z,-0.20
2023-01-29T20:40:25.892Z,-0.24
2023-01-29T20:42:55.126Z,-0.28
2023-01-29T20:45:24.109Z,-0.31
2023-01-29T20:47:53.056Z,-0.32
2023-01-29T20:50:21.838Z,-0.31
2023-01-29T20:52:54.167Z,-0.30
2023-01-29T20:55:23.656Z,-0.28
2023-01-29T20:58:06.447Z,-0.28
2023-01-29T21:00:35.863Z,-0.26
2023-01-29T21:03:05.022Z,-0.26
2023-01-29T21:05:36.059Z,-0.31
2023-01-29T21:08:06.576Z,-0.35
2023-01-29T21:10:35.096Z,-0.36
2023-01-29T21:13:04.915Z,-0.41
2023-01-29T21:15:34.352Z,-0.45
2023-01-29T21:18:04.745Z,-0.46
2023-01-29T21:20:33.396Z,-0.46
2023-01-29T21:23:06.616Z,-0.44
2023-01-29T21:25:35.624Z,-0.42
2023-01-29T21:28:06.034Z,-0.40
2023-01-29T21:30:34.775Z,-0.41
2023-01-29T21:33:05.540Z,-0.41
2023-01-29T21:35:37.127Z,-0.40
2023-01-29T21:38:06.201Z,-0.43
2023-01-29T21:40:34.900Z,-0.47
2023-01-29T21:43:14.195Z,-0.51
2023-01-29T21:45:43.428Z,-0.53
2023-01-29T21:48:12.709Z,-0.56
2023-01-29T21:50:41.476Z,-0.60
2023-01-29T21:53:10.425Z,-0.63
2023-01-29T21:55:39.921Z,-0.67
2023-01-29T21:58:08.805Z,-0.69
2023-01-29T22:00:37.620Z,-0.68
2023-01-29T22:03:07.058Z,-0.65
2023-01-29T22:05:36.046Z,-0.63
2023-01-29T22:08:05.168Z,-0.63
2023-01-29T22:10:37.074Z,-0.64
2023-01-29T22:13:06.013Z,-0.63
2023-01-29T22:15:35.156Z,-0.61
2023-01-29T22:18:04.225Z,-0.60
2023-01-29T22:20:33.234Z,-0.60
2023-01-29T22:23:02.495Z,-0.62
2023-01-29T22:25:32.976Z,-0.65
2023-01-29T22:28:01.929Z,-0.71
2023-01-29T22:30:30.921Z,-0.75
2023-01-29T22:32:59.588Z,-0.80
2023-01-29T22:35:28.699Z,-0.83
2023-01-29T22:37:57.528Z,-0.82
2023-01-29T22:40:27.109Z,-0.82
2023-01-29T22:42:55.843Z,-0.80
2023-01-29T22:45:24.610Z,-0.75
2023-01-29T22:47:53.398Z,-0.72
2023-01-29T22:50:22.466Z,-0.68
2023-01-29T22:52:54.201Z,-0.66
2023-01-29T22:55:23.644Z,-0.66
2023-01-29T22:57:53.675Z,-0.67
2023-01-29T23:00:22.829Z,-0.68
2023-01-29T23:02:52.239Z,-0.71
2023-01-29T23:05:21.045Z,-0.75
2023-01-29T23:07:49.935Z,-0.80
2023-01-29T23:10:19.291Z,-0.83
2023-01-29T23:12:49.378Z,-0.85
2023-01-29T23:15:18.055Z,-0.88
2023-01-29T23:17:47.343Z,-0.89
2023-01-29T23:20:16.398Z,-0.88
2023-01-29T23:22:45.513Z,-0.88
2023-01-29T23:25:14.972Z,-0.90
2023-01-29T23:27:43.597Z,-0.91
2023-01-29T23:30:12.658Z,-0.92
2023-01-29T23:32:41.776Z,-0.95
2023-01-29T23:35:10.550Z,-0.99
2023-01-29T23:37:39.302Z,-1.03
2023-01-29T23:40:08.820Z,-1.06
2023-01-29T23:42:37.413Z,-1.08
2023-01-29T23:45:06.769Z,-1.10
2023-01-29T23:47:35.919Z,-1.11
2023-01-29T23:50:04.685Z,-1.11
2023-01-29T23:52:33.524Z,-1.08
2023-01-29T23:55:02.434Z,-1.06
2023-01-29T23:57:31.024Z,-1.03
2023-01-29T23:59:59.727Z,-0.98
